Yoro, Honduras

12:01 PM CST on June 22, 2017 (GMT -0600)
Coronel Enrique Soto Cano Air Base | | Change Station

Elev 2054 ft 14.43 °N, 89.18 °W | Updated 3 minutes ago

Partly Cloudy
Partly Cloudy
86 °F
Feels Like 100 °F
N
0
Wind Variable Wind from North

Today
High -- | Low -- °F
--% Chance of Precip.
Yesterday
High -- | Low -- °F
Precip. -- in
Pressure 29.83 in
Visibility 6.2 miles
Clouds Few 2900 ft
Scattered Clouds 11000 ft
Mostly Cloudy 13000 ft
Mostly Cloudy 15000 ft
Mostly Cloudy 18000 ft
Overcast 21000 ft
Heat Index 100 °F
Dew Point 79 °F
Humidity 79%
Rainfall 0.00 in
Snow Depth Not available.
5:19 AM 6:21 PM
Waning Crescent, 3% visible
METAR MHSC 221758Z AUTO 00000KT 9999 FEW029 SCT110 BKN130 BKN150 BKN180 OVC210 30/26 A2995 RMK AO2 SLP100 T03020262 10302 20209 57017
Pressure 29.83 in
Visibility 6.2 miles
Clouds Few 2900 ft
Scattered Clouds 11000 ft
Mostly Cloudy 13000 ft
Mostly Cloudy 15000 ft
Mostly Cloudy 18000 ft
Overcast 21000 ft
Heat Index 100 °F
Dew Point 79 °F
Humidity 79%
Rainfall 0.00 in
Snow Depth Not available.
5:19 AM 6:21 PM
Waning Crescent, 3% visible
METAR MHSC 221758Z AUTO 00000KT 9999 FEW029 SCT110 BKN130 BKN150 BKN180 OVC210 30/26 A2995 RMK AO2 SLP100 T03020262 10302 20209 57017

Get Severe Weather Alerts

Thanks for signing up!

Be on the lookout for a verification email in your inbox.

You'll start receiving the daily forecast at 6 AM.

×

10-Day Weather Forecast

No radar image for this location.
×

Almanac

Astronomy

Jun. 22, 2017 Rise Set
Actual Time
Civil Twilight
Nautical Twilight
Astronomical Twilight
Moon
Length of Visible Light
Length of Day
Tomorrow will be .
, % of the Moon is Illuminated

Today's Extremes

Country Highs Country Lows

Community

WunderPhotos

Category 6

Welcome to Category 6. This is the collective home for Weather Underground's featured writeups by Dr. Jeff Masters (right), Bob Henson (left), Chris Burt, and other regular contributors.

Nearby

Air Quality

  Air Quality AQ Index Pollutant
Not available.

Snow Depth

Station Depth Elevation

Earthquake Activity

City Distance Mag. Time & Date
Minimum magnitude displayed is 2.5.

Coastal Water Temperatures

Place Temperature

Stations

Nearby Weather Stations

Station Location Temp. Windchill Dew Point Humidity Wind Precip. Elev Updated Type